Погода Бенуэна 2 недели

Бенуэ, Нигерия

26 февраля-10 марта
  • 26февраля
    Сегодня
    +25°
    +37°
    Ясно и безоблачно
    ВремяПогодаТемператураВлажностьДавлениеВетер, м/сВероятность осадков
    01:00Облачно с прояснениями+27°C39 %731 мм2.6 м/с2 %
    04:00Облачно с прояснениями+26°C59 %731 мм3.0 м/с2 %
    07:00Ясно и безоблачно+24°C88 %732 мм3.0 м/с2 %
    10:00Практически безоблачно+30°C67 %733 мм2.8 м/с2 %
    13:00Ясно и безоблачно+35°C37 %731 мм1.0 м/с2 %
    16:00Ясно и безоблачно+37°C27 %729 мм1.3 м/с2 %
    19:00Ясно и безоблачно+33°C36 %729 мм0.9 м/с2 %
    22:00Ясно и безоблачно+30°C48 %731 мм2.3 м/с2 %
  • 27февраля
    Вторник
    +26°
    +37°
    Ясно и безоблачно
    ВремяПогодаТемператураВлажностьДавлениеВетер, м/сВероятность осадков
    01:00Ясно и безоблачно+29°C68 %731 мм5.1 м/с2 %
    04:00Ясно и безоблачно+27°C87 %730 мм4.7 м/с2 %
    07:00Небольшая облачность+25°C91 %732 мм4.0 м/с2 %
    10:00Практически безоблачно+30°C64 %733 мм3.1 м/с3 %
    13:00Ясно и безоблачно+35°C45 %731 мм1.5 м/с2 %
    16:00Ясно и безоблачно+37°C37 %729 мм1.1 м/с1 %
    19:00Ясно и безоблачно+33°C47 %729 мм1.7 м/с2 %
    22:00Ясно и безоблачно+31°C54 %731 мм2.0 м/с2 %
  • 28февраля
    Среда
    +25°
    +38°
    Облачно с прояснениями
    ВремяПогодаТемператураВлажностьДавлениеВетер, м/сВероятность осадков
    01:00Ясно и безоблачно+30°C57 %730 мм2.5 м/с2 %
    04:00Ясно и безоблачно+28°C80 %730 мм5.0 м/с2 %
    07:00Ясно и безоблачно+26°C88 %731 мм4.5 м/с2 %
    10:00Ясно и безоблачно+31°C64 %732 мм3.6 м/с2 %
    13:00Облачно с прояснениями+36°C44 %730 мм2.5 м/с2 %
    16:00Небольшая облачность+37°C38 %728 мм2.5 м/с2 %
    19:00Практически безоблачно+33°C48 %728 мм2.5 м/с4 %
    22:00Ясно и безоблачно+31°C55 %730 мм4.2 м/с3 %
  • 29февраля
    Четверг
    +24°
    +36°
    Небольшая облачность
    ВремяПогодаТемператураВлажностьДавлениеВетер, м/сВероятность осадков
    01:00Ясно и безоблачно+30°C68 %730 мм4.8 м/с2 %
    04:00Ясно и безоблачно+28°C79 %729 мм5.7 м/с2 %
    07:00Практически безоблачно+26°C87 %730 мм4.3 м/с2 %
    10:00Пасмурно, сплошная облачность+30°C67 %732 мм4.6 м/с7 %
    13:00Небольшая облачность+34°C51 %730 мм3.8 м/с2 %
    16:00Небольшая облачность+35°C43 %728 мм3.5 м/с2 %
    19:00Облачно с прояснениями+32°C54 %729 мм2.8 м/с14 %
    22:00Облачно с прояснениями+29°C69 %730 мм4.2 м/с3 %
  • 01марта
    Пятница
    +25°
    +36°
    Облачно с прояснениями
    ВремяПогодаТемператураВлажностьДавлениеВетер, м/сВероятность осадков
    01:00Облачно с прояснениями+28°C73 %730 мм4.6 м/с2 %
    04:00Облачно с прояснениями+27°C83 %730 мм5.1 м/с2 %
    07:00Облачно с прояснениями+25°C88 %731 мм4.2 м/с2 %
    10:00Облачно с прояснениями+30°C66 %732 мм4.5 м/с13 %
    13:00Облачно с прояснениями+34°C48 %730 мм2.4 м/с10 %
    16:00Облачно с прояснениями+36°C39 %728 мм1.8 м/с10 %
    19:00Облачно с прояснениями+32°C48 %729 мм2.3 м/с15 %
    22:00Облачно с прояснениями+31°C57 %731 мм3.9 м/с2 %
Мы используем cookies
Соглашаюсь